Time;durP1;ratioP1;P1;durP2;ratioP2;P2;SDS_P1;SDS_P2;PMS_P1;PMS_P2;Temp;Humidity;BMP_temperature;BMP_pressure;BME280_temperature;BME280_humidity;BME280_pressure;Samples;Min_cycle;Max_cycle;Signal;HPM_P1;HPM_P2
2023/01/19 00:02:21;;;;;;;6.50;5.80;;;2.10;99.90;;;;;;5019289;28;20129;-79
2023/01/19 00:04:47;;;;;;;6.43;5.82;;;2.00;99.90;;;;;;5031636;28;20080;-79
2023/01/19 00:07:13;;;;;;;6.20;5.60;;;2.00;99.90;;;;;;5018521;28;20727;-78
2023/01/19 00:09:39;;;;;;;6.60;5.88;;;1.90;99.90;;;;;;5035710;28;20044;-79
2023/01/19 00:12:05;;;;;;;6.35;5.38;;;1.80;99.90;;;;;;5035399;28;20048;-79
2023/01/19 00:14:31;;;;;;;5.45;4.55;;;1.70;99.90;;;;;;5019602;28;20116;-78
2023/01/19 00:16:57;;;;;;;4.63;3.90;;;1.60;99.90;;;;;;5034548;28;20044;-79
2023/01/19 00:19:22;;;;;;;4.15;3.40;;;1.60;99.90;;;;;;5044632;28;20037;-79
2023/01/19 00:21:48;;;;;;;4.13;3.63;;;1.60;99.90;;;;;;5026118;28;20373;-78
2023/01/19 00:24:14;;;;;;;4.35;3.70;;;1.60;99.90;;;;;;5035009;28;20044;-79
2023/01/19 00:26:41;;;;;;;5.45;3.55;;;1.60;99.90;;;;;;5030297;28;20445;-78
2023/01/19 00:29:09;;;;;;;4.70;3.22;;;1.60;99.90;;;;;;5034060;28;20041;-79
2023/01/19 00:31:35;;;;;;;4.90;4.10;;;1.60;99.90;;;;;;5029665;28;20124;-79
2023/01/19 00:34:02;;;;;;;5.22;4.03;;;1.60;99.90;;;;;;5035034;28;20171;-79
2023/01/19 00:36:27;;;;;;;4.55;3.97;;;1.60;99.90;;;;;;5034898;28;20041;-81
2023/01/19 00:38:53;;;;;;;4.40;3.92;;;1.60;99.90;;;;;;5018287;28;20048;-80
2023/01/19 00:42:38;;;;;;;5.57;4.32;;;1.60;99.90;;;;;;5035297;28;20427;-79
2023/01/19 00:44:04;;;;;;;5.45;4.90;;;1.60;99.90;;;;;;5033958;28;20036;-79
2023/01/19 00:46:30;;;;;;;6.30;5.32;;;1.60;99.90;;;;;;5018691;28;20472;-79
2023/01/19 00:48:55;;;;;;;6.65;5.68;;;1.60;99.90;;;;;;5034531;28;20036;-79
2023/01/19 00:51:21;;;;;;;9.18;7.57;;;1.60;99.90;;;;;;5017986;28;20029;-78
2023/01/19 00:53:47;;;;;;;8.05;7.18;;;1.60;99.90;;;;;;5016548;28;20037;-79
2023/01/19 00:56:12;;;;;;;10.30;8.30;;;1.60;99.90;;;;;;5021478;28;20548;-79
2023/01/19 00:58:38;;;;;;;9.45;8.45;;;1.60;99.90;;;;;;5017855;28;20047;-79
2023/01/19 01:01:04;;;;;;;11.80;9.15;;;1.60;99.90;;;;;;5018208;28;20044;-79
2023/01/19 01:03:30;;;;;;;10.23;9.05;;;1.60;99.90;;;;;;5034402;28;20051;-78
2023/01/19 01:05:56;;;;;;;12.00;10.40;;;1.60;99.90;;;;;;5032438;28;20033;-79
2023/01/19 01:08:22;;;;;;;13.35;11.27;;;1.60;99.90;;;;;;5017661;28;20569;-79
2023/01/19 01:10:47;;;;;;;13.73;12.00;;;1.60;99.90;;;;;;5041839;28;20048;-78
2023/01/19 01:13:13;;;;;;;13.23;11.40;;;1.60;99.90;;;;;;5028516;28;20517;-79
2023/01/19 01:15:39;;;;;;;15.55;12.50;;;1.60;99.90;;;;;;5016644;28;20041;-78
2023/01/19 01:18:04;;;;;;;16.33;12.40;;;1.60;99.90;;;;;;5030035;28;20040;-79
2023/01/19 01:20:32;;;;;;;16.92;14.00;;;1.60;99.90;;;;;;5031501;28;20033;-78
2023/01/19 01:22:58;;;;;;;16.67;13.48;;;1.60;99.90;;;;;;5035877;28;20064;-78
2023/01/19 01:25:25;;;;;;;18.92;14.77;;;1.60;99.90;;;;;;5019618;28;20115;-79
2023/01/19 01:27:51;;;;;;;23.45;15.80;;;1.60;99.90;;;;;;5016752;28;20205;-79
2023/01/19 01:30:17;;;;;;;19.88;16.30;;;1.60;99.90;;;;;;5017654;28;20487;-79
2023/01/19 01:32:43;;;;;;;18.55;16.17;;;1.70;99.90;;;;;;5033921;28;20044;-79
2023/01/19 01:35:09;;;;;;;20.77;17.38;;;1.70;99.90;;;;;;5032335;28;20039;-79
2023/01/19 01:37:36;;;;;;;21.30;17.95;;;1.70;99.90;;;;;;5032086;28;20064;-79
2023/01/19 01:40:03;;;;;;;23.48;19.20;;;1.70;99.90;;;;;;5033955;28;20033;-79
2023/01/19 01:42:30;;;;;;;27.20;19.55;;;1.70;99.90;;;;;;5016910;28;20545;-79
2023/01/19 01:44:58;;;;;;;34.40;22.15;;;1.70;99.90;;;;;;5032745;28;20052;-79
2023/01/19 01:47:43;;;;;;;27.27;22.10;;;1.80;99.90;;;;;;5017106;28;20102;-79
2023/01/19 01:50:11;;;;;;;32.42;23.45;;;1.80;99.90;;;;;;5015031;28;20100;-79
2023/01/19 01:52:44;;;;;;;27.20;22.42;;;1.80;99.90;;;;;;5033290;28;20040;-79
2023/01/19 01:55:11;;;;;;;28.48;22.25;;;1.80;99.90;;;;;;5027793;28;20650;-79
2023/01/19 01:57:42;;;;;;;30.25;22.52;;;1.80;99.90;;;;;;5033259;28;20537;-79
2023/01/19 02:00:09;;;;;;;32.30;24.63;;;1.80;99.90;;;;;;5015218;28;20041;-79
2023/01/19 02:02:51;;;;;;;34.63;24.52;;;1.80;99.90;;;;;;5014374;28;20052;-79
2023/01/19 02:05:21;;;;;;;36.15;25.02;;;1.80;99.90;;;;;;5023579;28;20052;-79
2023/01/19 02:13:24;;;;;;;28.55;23.70;;;1.90;99.90;;;;;;5038055;28;20160;-79
2023/01/19 02:15:53;;;;;;;30.60;24.02;;;1.90;99.90;;;;;;5035269;28;20033;-79
2023/01/19 02:18:21;;;;;;;38.10;25.48;;;1.90;99.90;;;;;;5036317;28;20579;-79
2023/01/19 02:21:44;;;;;;;30.92;23.67;;;1.90;99.90;;;;;;5037333;28;20041;-79
2023/01/19 02:24:10;;;;;;;28.98;23.02;;;1.90;99.90;;;;;;4958018;28;20127;-79
2023/01/19 02:26:40;;;;;;;25.80;21.10;;;1.90;99.90;;;;;;4958265;28;20042;-79
2023/01/19 02:29:18;;;;;;;26.73;20.85;;;1.90;99.90;;;;;;5007460;28;20045;-79
2023/01/19 02:31:44;;;;;;;28.23;20.70;;;1.90;99.90;;;;;;5040694;28;20037;-79
2023/01/19 02:34:14;;;;;;;26.58;19.70;;;1.90;99.90;;;;;;5038177;28;20037;-79
2023/01/19 02:36:50;;;;;;;24.98;18.50;;;1.90;99.90;;;;;;5019500;28;20045;-79
2023/01/19 02:39:21;;;;;;;18.23;15.75;;;2.00;99.90;;;;;;5003787;28;20037;-80
2023/01/19 02:41:59;;;;;;;22.52;16.95;;;2.00;99.90;;;;;;5020600;28;20399;-79
2023/01/19 02:44:26;;;;;;;21.70;16.88;;;2.00;99.90;;;;;;5036389;28;20035;-79
2023/01/19 02:46:55;;;;;;;20.35;17.63;;;2.00;99.90;;;;;;5036256;28;20166;-79
2023/01/19 02:49:21;;;;;;;23.13;18.30;;;2.00;99.90;;;;;;5036499;28;20033;-79
2023/01/19 02:51:48;;;;;;;21.27;17.08;;;2.00;99.90;;;;;;5037062;28;20041;-79
2023/01/19 02:54:37;;;;;;;24.67;17.92;;;2.00;99.90;;;;;;5037029;28;20041;-78
2023/01/19 02:57:12;;;;;;;23.33;17.58;;;2.00;99.90;;;;;;5016847;28;20045;-79
2023/01/19 03:00:04;;;;;;;20.58;17.17;;;1.90;99.90;;;;;;5011729;28;20033;-78
2023/01/19 03:02:46;;;;;;;18.10;16.20;;;1.90;99.90;;;;;;5019681;28;20055;-79
2023/01/19 03:05:12;;;;;;;20.65;16.42;;;1.90;99.90;;;;;;5037114;28;20492;-78
2023/01/19 03:07:51;;;;;;;21.52;15.73;;;1.80;99.90;;;;;;5033877;28;20049;-78
2023/01/19 03:10:20;;;;;;;19.42;15.57;;;1.80;99.90;;;;;;5012997;28;20032;-78
2023/01/19 03:12:55;;;;;;;17.67;15.27;;;1.80;99.90;;;;;;5019952;28;20041;-78
2023/01/19 03:15:26;;;;;;;23.20;16.60;;;1.70;99.90;;;;;;5030036;28;20133;-79
2023/01/19 03:17:54;;;;;;;21.20;15.45;;;1.70;99.90;;;;;;5034676;28;20045;-78
2023/01/19 03:20:24;;;;;;;19.85;15.27;;;1.70;99.90;;;;;;5018710;28;20033;-79
2023/01/19 03:22:55;;;;;;;24.55;15.73;;;1.70;99.90;;;;;;5036112;28;20071;-78
2023/01/19 03:25:22;;;;;;;20.00;15.10;;;1.70;99.90;;;;;;5038570;28;20041;-78
2023/01/19 03:27:50;;;;;;;19.45;14.02;;;1.70;99.90;;;;;;5019750;28;20064;-79
2023/01/19 03:30:27;;;;;;;19.60;14.40;;;1.70;99.90;;;;;;5034463;28;20041;-77
2023/01/19 03:32:58;;;;;;;18.85;13.93;;;1.70;99.90;;;;;;5023901;28;20045;-79
2023/01/19 03:35:28;;;;;;;18.13;12.90;;;1.70;99.90;;;;;;5014756;28;20041;-78
2023/01/19 03:37:56;;;;;;;20.92;13.07;;;1.70;99.90;;;;;;5035742;28;20048;-78
2023/01/19 03:40:26;;;;;;;13.15;10.93;;;1.70;99.90;;;;;;5034682;28;20479;-78
2023/01/19 03:42:52;;;;;;;15.50;10.95;;;1.70;99.90;;;;;;5035093;28;20029;-78
2023/01/19 03:45:18;;;;;;;12.95;9.63;;;1.70;99.90;;;;;;5034532;28;20403;-77
2023/01/19 03:47:44;;;;;;;11.43;9.18;;;1.70;99.90;;;;;;5035987;28;20041;-78
2023/01/19 03:50:19;;;;;;;12.82;8.68;;;1.70;99.90;;;;;;5018077;28;20609;-78
2023/01/19 03:52:44;;;;;;;20.00;9.77;;;1.70;99.90;;;;;;5035476;28;20087;-78
2023/01/19 03:55:10;;;;;;;13.02;9.23;;;1.70;99.90;;;;;;5033849;28;20083;-78
2023/01/19 03:57:36;;;;;;;16.33;9.35;;;1.80;99.90;;;;;;5035325;28;20037;-78
2023/01/19 04:00:03;;;;;;;19.23;10.10;;;1.80;99.90;;;;;;5017989;28;20029;-78
2023/01/19 04:02:28;;;;;;;13.00;8.90;;;1.80;99.90;;;;;;5034758;28;20514;-78
2023/01/19 04:04:54;;;;;;;13.15;9.13;;;1.80;99.90;;;;;;5040015;28;20043;-78
2023/01/19 04:07:20;;;;;;;20.83;10.07;;;1.80;99.90;;;;;;5035171;28;20457;-78
2023/01/19 04:09:45;;;;;;;14.48;9.43;;;1.90;99.90;;;;;;5033382;28;20040;-77
2023/01/19 04:12:11;;;;;;;25.13;10.40;;;1.90;99.90;;;;;;5035606;28;20064;-78
2023/01/19 04:14:36;;;;;;;16.90;9.02;;;1.90;99.90;;;;;;5035736;28;20047;-78
2023/01/19 04:17:02;;;;;;;14.15;8.00;;;2.00;99.90;;;;;;5036556;28;20083;-78
2023/01/19 04:19:27;;;;;;;15.27;7.22;;;1.90;99.90;;;;;;5031593;28;20058;-77
2023/01/19 04:24:21;;;;;;;15.82;6.95;;;2.00;99.90;;;;;;5058697;22;20521;-78
2023/01/19 04:26:46;;;;;;;17.58;6.32;;;2.00;99.90;;;;;;5018001;28;20049;-78
2023/01/19 04:29:13;;;;;;;18.92;6.18;;;2.10;99.90;;;;;;5041748;28;20029;-77
2023/01/19 04:31:38;;;;;;;17.42;4.47;;;2.10;99.90;;;;;;5034176;28;20406;-77
2023/01/19 04:34:04;;;;;;;12.63;3.40;;;2.20;99.90;;;;;;5018582;28;20040;-78
2023/01/19 04:36:30;;;;;;;8.82;3.08;;;2.30;99.90;;;;;;5042467;28;20040;-78
2023/01/19 04:38:55;;;;;;;7.75;2.75;;;2.40;99.90;;;;;;5048610;28;20501;-78
2023/01/19 04:41:21;;;;;;;14.57;3.10;;;2.50;99.90;;;;;;5018614;28;20040;-78
2023/01/19 04:43:46;;;;;;;15.98;3.10;;;2.50;99.90;;;;;;5018359;28;20037;-77
2023/01/19 04:46:13;;;;;;;16.77;2.83;;;2.60;99.90;;;;;;5042217;28;20040;-77
2023/01/19 04:48:39;;;;;;;26.08;3.15;;;2.70;99.90;;;;;;5042108;28;20171;-77
2023/01/19 04:51:04;;;;;;;14.38;2.58;;;2.70;99.90;;;;;;5015778;28;20545;-77
2023/01/19 04:53:30;;;;;;;14.85;2.70;;;2.80;99.90;;;;;;5034799;28;20044;-78
2023/01/19 04:55:55;;;;;;;21.15;2.88;;;2.80;99.90;;;;;;5018486;28;20058;-78
2023/01/19 04:58:21;;;;;;;21.48;3.47;;;2.90;99.90;;;;;;5017992;28;20033;-78
2023/01/19 05:00:47;;;;;;;21.05;3.03;;;3.00;99.90;;;;;;5033814;28;20048;-78
2023/01/19 05:03:13;;;;;;;20.08;3.50;;;3.10;99.90;;;;;;5042402;28;20549;-77
2023/01/19 05:05:38;;;;;;;18.08;3.10;;;3.20;99.90;;;;;;5034638;28;20580;-78
2023/01/19 05:08:04;;;;;;;13.65;2.33;;;3.30;99.90;;;;;;5035110;28;20128;-78
2023/01/19 05:10:30;;;;;;;14.93;2.53;;;3.30;99.90;;;;;;5036971;28;20037;-78
2023/01/19 05:12:55;;;;;;;9.05;1.90;;;3.40;99.90;;;;;;5018282;28;20048;-78
2023/01/19 05:15:21;;;;;;;6.72;1.30;;;3.40;99.90;;;;;;5036012;28;20114;-78
2023/01/19 05:17:47;;;;;;;3.83;0.80;;;3.40;99.90;;;;;;5042364;28;20045;-78
2023/01/19 05:20:13;;;;;;;4.93;1.30;;;3.50;99.90;;;;;;5017502;28;20446;-78
2023/01/19 05:22:38;;;;;;;4.38;0.70;;;3.40;99.90;;;;;;5017859;28;20043;-78
2023/01/19 05:25:07;;;;;;;8.73;1.08;;;3.40;99.90;;;;;;5034161;28;20048;-78
2023/01/19 05:27:33;;;;;;;9.40;1.30;;;3.40;99.90;;;;;;5034186;28;20045;-78
2023/01/19 05:29:58;;;;;;;6.80;1.10;;;3.40;99.90;;;;;;5039958;28;20052;-78
2023/01/19 05:32:24;;;;;;;11.55;1.40;;;3.40;99.90;;;;;;5034497;28;20115;-78
2023/01/19 05:34:50;;;;;;;8.88;1.35;;;3.40;99.90;;;;;;5017668;28;20072;-78
2023/01/19 05:37:15;;;;;;;7.10;1.27;;;3.40;99.90;;;;;;5016465;28;20129;-78
2023/01/19 05:39:41;;;;;;;8.35;1.30;;;3.40;99.90;;;;;;5038395;28;20041;-78
2023/01/19 05:42:06;;;;;;;6.80;1.13;;;3.40;99.90;;;;;;5034317;28;20041;-78
2023/01/19 05:44:32;;;;;;;5.55;1.17;;;3.40;99.90;;;;;;5034292;28;20082;-78
2023/01/19 05:46:57;;;;;;;8.48;1.25;;;3.40;99.90;;;;;;5034280;28;20037;-78
2023/01/19 05:49:23;;;;;;;4.57;0.98;;;3.30;99.90;;;;;;5016330;28;20037;-78
2023/01/19 05:51:49;;;;;;;6.53;0.90;;;3.30;99.90;;;;;;5033473;28;20438;-78
2023/01/19 05:54:14;;;;;;;5.90;1.20;;;3.30;99.90;;;;;;5017914;28;20033;-78
2023/01/19 05:56:41;;;;;;;8.48;1.25;;;3.20;99.90;;;;;;5050874;28;20041;-78
2023/01/19 05:59:06;;;;;;;9.50;1.25;;;3.20;99.90;;;;;;5033475;28;20053;-78
2023/01/19 06:01:34;;;;;;;4.50;1.25;;;3.20;99.90;;;;;;5014095;28;20040;-78
2023/01/19 06:04:00;;;;;;;8.63;1.40;;;3.10;99.90;;;;;;5032087;28;20118;-78
2023/01/19 06:06:25;;;;;;;6.93;1.30;;;3.10;99.90;;;;;;5014083;28;20060;-78
2023/01/19 06:08:51;;;;;;;4.75;1.00;;;3.00;99.90;;;;;;5017058;28;20044;-78
2023/01/19 06:11:17;;;;;;;5.80;1.10;;;3.00;99.90;;;;;;5016259;28;20044;-77
2023/01/19 06:13:42;;;;;;;7.07;1.40;;;2.90;99.90;;;;;;5032416;28;20581;-80
2023/01/19 06:16:08;;;;;;;7.18;1.05;;;2.90;99.90;;;;;;5033742;28;20075;-81
2023/01/19 06:18:34;;;;;;;6.22;1.13;;;2.80;99.90;;;;;;5029858;28;20120;-78
2023/01/19 06:21:07;;;;;;;10.40;1.63;;;2.80;99.90;;;;;;5014736;28;20571;-78
2023/01/19 06:23:33;;;;;;;11.60;2.60;;;2.70;99.90;;;;;;5017392;28;20054;-78
2023/01/19 06:25:59;;;;;;;11.32;2.88;;;2.70;99.90;;;;;;5031413;28;20739;-79
2023/01/19 06:28:25;;;;;;;13.20;2.63;;;2.60;99.90;;;;;;5011891;28;20045;-79
2023/01/19 06:30:52;;;;;;;17.33;2.70;;;2.60;99.90;;;;;;5014287;28;20036;-79
2023/01/19 06:33:18;;;;;;;14.00;2.58;;;2.60;99.90;;;;;;5015747;28;20037;-80
2023/01/19 06:35:45;;;;;;;11.68;2.10;;;2.60;99.90;;;;;;5016883;28;20041;-81
2023/01/19 06:38:12;;;;;;;18.27;2.55;;;2.60;99.90;;;;;;5015797;28;20037;-81
2023/01/19 06:40:39;;;;;;;11.02;2.78;;;2.70;99.90;;;;;;5019041;28;20041;-81
2023/01/19 06:43:05;;;;;;;12.88;2.30;;;2.70;99.90;;;;;;5020217;28;20087;-81
2023/01/19 06:45:31;;;;;;;11.73;2.03;;;2.70;99.90;;;;;;5020749;28;20407;-81
2023/01/19 06:47:56;;;;;;;14.60;2.33;;;2.80;99.90;;;;;;5034313;28;20041;-81
2023/01/19 06:50:22;;;;;;;8.90;1.88;;;2.80;99.90;;;;;;5041314;28;20064;-81
2023/01/19 06:52:51;;;;;;;14.02;2.28;;;2.80;99.90;;;;;;5049211;28;20122;-81
2023/01/19 06:55:17;;;;;;;14.88;2.03;;;2.90;99.90;;;;;;5015929;28;20044;-81
2023/01/19 06:57:43;;;;;;;12.88;1.92;;;2.90;99.90;;;;;;5033153;28;20037;-81
2023/01/19 07:00:10;;;;;;;13.13;2.30;;;2.90;99.90;;;;;;5019122;28;20052;-80
2023/01/19 07:02:37;;;;;;;12.27;2.38;;;2.90;99.90;;;;;;5014241;28;20047;-82
2023/01/19 07:05:05;;;;;;;15.10;1.80;;;2.90;99.90;;;;;;5015221;28;20510;-79
2023/01/19 07:07:31;;;;;;;12.75;1.95;;;2.90;99.90;;;;;;5020618;28;20037;-79
2023/01/19 07:09:57;;;;;;;12.05;1.95;;;2.80;99.90;;;;;;5020926;28;20102;-78
2023/01/19 07:12:22;;;;;;;9.95;2.10;;;2.90;99.90;;;;;;5032652;28;20037;-79
2023/01/19 07:14:48;;;;;;;12.02;1.70;;;2.90;99.90;;;;;;5021615;28;20445;-81
2023/01/19 07:17:14;;;;;;;7.85;1.42;;;2.90;99.90;;;;;;5018819;28;20116;-82
2023/01/19 07:19:39;;;;;;;10.40;2.00;;;2.90;99.90;;;;;;5021623;28;20054;-83
2023/01/19 07:22:05;;;;;;;13.48;2.42;;;2.90;99.90;;;;;;5039017;28;20487;-82
2023/01/19 07:24:32;;;;;;;9.27;1.02;;;3.00;99.90;;;;;;5023393;28;20110;-82
2023/01/19 07:26:58;;;;;;;12.05;1.92;;;2.90;99.90;;;;;;5037465;28;20459;-85
2023/01/19 07:29:24;;;;;;;13.88;2.08;;;2.90;99.90;;;;;;5020322;28;20041;-84
2023/01/19 07:31:50;;;;;;;14.82;1.90;;;2.90;99.90;;;;;;5036443;28;20513;-84
2023/01/19 07:34:15;;;;;;;13.32;1.92;;;2.90;99.90;;;;;;5019861;28;20124;-84
2023/01/19 07:36:41;;;;;;;10.00;2.08;;;2.90;99.90;;;;;;5019951;28;20111;-84
2023/01/19 07:39:06;;;;;;;10.48;2.00;;;2.80;99.90;;;;;;5036703;28;20628;-84
2023/01/19 07:41:32;;;;;;;13.60;1.85;;;2.80;99.90;;;;;;5020155;28;20120;-84
2023/01/19 07:43:58;;;;;;;13.57;2.92;;;2.80;99.90;;;;;;5036252;28;20086;-83
2023/01/19 07:46:23;;;;;;;9.23;1.77;;;2.80;99.90;;;;;;5019774;28;20036;-84
2023/01/19 07:48:49;;;;;;;11.85;2.90;;;2.80;99.90;;;;;;5019647;28;20037;-84
2023/01/19 07:51:16;;;;;;;16.73;2.33;;;2.90;99.90;;;;;;5019783;28;20040;-85
2023/01/19 07:53:43;;;;;;;15.30;2.80;;;2.90;99.90;;;;;;5019720;28;20043;-84
2023/01/19 07:56:09;;;;;;;15.50;2.30;;;2.90;99.90;;;;;;5036065;28;20098;-84
2023/01/19 07:58:35;;;;;;;29.80;3.83;;;2.90;99.90;;;;;;5035773;28;20044;-84
2023/01/19 08:01:05;;;;;;;14.75;2.35;;;2.90;99.90;;;;;;5036135;28;20037;-84
2023/01/19 08:03:32;;;;;;;12.93;2.80;;;3.00;99.90;;;;;;5018941;28;20040;-84
2023/01/19 08:05:58;;;;;;;12.98;2.97;;;2.90;99.90;;;;;;5036052;28;20072;-84
2023/01/19 08:08:24;;;;;;;16.90;2.67;;;3.00;99.90;;;;;;5035743;28;20041;-84
2023/01/19 08:10:50;;;;;;;13.60;2.50;;;3.00;99.90;;;;;;5019406;28;20086;-84
2023/01/19 08:13:16;;;;;;;18.95;3.08;;;3.00;99.90;;;;;;5036065;28;20396;-83
2023/01/19 08:15:41;;;;;;;11.70;2.05;;;3.00;99.90;;;;;;5019620;28;20032;-84
2023/01/19 08:18:10;;;;;;;13.77;2.70;;;3.00;99.90;;;;;;5018967;28;20063;-83
2023/01/19 08:20:36;;;;;;;10.23;1.70;;;3.00;99.90;;;;;;5019356;28;20041;-84
2023/01/19 08:23:04;;;;;;;13.73;2.63;;;3.00;99.90;;;;;;5019378;28;20037;-84
2023/01/19 08:25:35;;;;;;;23.98;3.35;;;2.90;99.90;;;;;;5019250;28;20039;-84
2023/01/19 08:28:03;;;;;;;13.85;3.15;;;2.90;99.90;;;;;;5035896;28;20051;-83
2023/01/19 08:30:29;;;;;;;15.32;3.33;;;2.90;99.90;;;;;;5035700;28;20051;-84
2023/01/19 08:33:02;;;;;;;17.55;4.63;;;2.80;99.90;;;;;;5019303;28;20083;-83
2023/01/19 08:35:29;;;;;;;17.98;5.20;;;2.70;99.90;;;;;;5035916;28;20449;-84
2023/01/19 08:37:55;;;;;;;18.52;4.47;;;2.70;99.90;;;;;;5035269;28;20641;-84
2023/01/19 08:40:21;;;;;;;21.65;4.00;;;2.70;99.90;;;;;;5019445;28;20087;-82
2023/01/19 08:42:46;;;;;;;18.02;3.60;;;2.60;99.90;;;;;;5036356;28;20454;-84
2023/01/19 08:45:12;;;;;;;20.70;4.18;;;2.60;99.90;;;;;;5020110;28;20037;-83
2023/01/19 08:47:38;;;;;;;15.32;3.15;;;2.50;99.90;;;;;;5019284;28;20037;-84
2023/01/19 08:50:03;;;;;;;20.33;3.63;;;2.50;99.90;;;;;;5020841;28;20123;-83
2023/01/19 08:52:29;;;;;;;16.67;2.95;;;2.50;99.90;;;;;;5019588;28;20044;-83
2023/01/19 08:54:55;;;;;;;14.50;3.40;;;2.50;99.90;;;;;;5019880;28;20476;-83
2023/01/19 08:57:20;;;;;;;14.43;3.10;;;2.50;99.90;;;;;;5036803;28;20503;-83
2023/01/19 08:59:46;;;;;;;12.32;2.50;;;2.50;99.90;;;;;;5037678;28;20178;-83
2023/01/19 09:02:11;;;;;;;17.30;2.63;;;2.50;99.90;;;;;;5035749;28;20502;-83
2023/01/19 09:04:37;;;;;;;15.25;3.08;;;2.50;99.90;;;;;;5018561;28;20048;-84
2023/01/19 09:07:03;;;;;;;10.23;2.25;;;2.50;99.90;;;;;;5034765;28;20524;-83
2023/01/19 09:09:28;;;;;;;12.85;2.33;;;2.50;99.90;;;;;;5034966;28;20047;-83
2023/01/19 09:11:54;;;;;;;15.68;3.28;;;2.60;99.90;;;;;;5035466;28;20041;-83
2023/01/19 09:14:20;;;;;;;16.85;2.80;;;2.60;99.90;;;;;;5034911;28;20087;-83
2023/01/19 09:16:46;;;;;;;18.23;2.83;;;2.60;99.90;;;;;;5018719;28;20082;-83
2023/01/19 09:19:12;;;;;;;16.33;2.60;;;2.60;99.90;;;;;;5018350;28;20041;-83
2023/01/19 09:21:38;;;;;;;11.57;2.28;;;2.70;99.90;;;;;;5035684;28;20045;-83
2023/01/19 09:24:04;;;;;;;12.90;2.38;;;2.70;99.90;;;;;;5018811;28;20475;-84
2023/01/19 09:26:30;;;;;;;11.38;2.95;;;2.90;99.90;;;;;;5035308;28;20403;-83
2023/01/19 09:28:56;;;;;;;11.50;2.42;;;3.00;99.90;;;;;;5034782;28;20518;-83
2023/01/19 09:31:22;;;;;;;12.38;2.38;;;3.10;99.90;;;;;;5019185;28;20037;-83
2023/01/19 09:33:48;;;;;;;9.35;2.13;;;3.20;99.90;;;;;;5018660;28;20037;-83
2023/01/19 09:36:13;;;;;;;12.70;2.60;;;3.20;99.90;;;;;;5018645;28;20036;-83
2023/01/19 09:38:39;;;;;;;11.23;2.53;;;3.20;99.90;;;;;;5035209;28;20056;-83
2023/01/19 09:41:15;;;;;;;9.55;2.30;;;3.30;99.90;;;;;;5035291;28;20048;-83
2023/01/19 09:43:47;;;;;;;11.85;2.33;;;3.30;99.90;;;;;;5035146;28;20051;-83
2023/01/19 09:46:16;;;;;;;;;;;3.40;99.90;;;;;;5019412;28;20127;-83
2023/01/19 09:48:53;;;;;;;11.45;2.58;;;3.40;99.90;;;;;;5018652;28;20385;-83
2023/01/19 09:51:22;;;;;;;9.30;2.40;;;3.40;99.90;;;;;;5019533;28;20072;-82
2023/01/19 09:54:00;;;;;;;11.98;2.22;;;3.50;99.90;;;;;;5036170;28;20402;-82
2023/01/19 09:56:29;;;;;;;12.73;2.80;;;3.60;99.90;;;;;;5019694;28;20048;-83
2023/01/19 09:58:56;;;;;;;11.43;2.45;;;3.70;99.90;;;;;;5035618;28;20041;-82
2023/01/19 10:01:39;;;;;;;13.75;2.47;;;3.80;99.90;;;;;;5020037;28;20094;-83
2023/01/19 10:04:23;;;;;;;14.38;3.08;;;3.80;99.90;;;;;;5020521;28;20072;-82
2023/01/19 10:06:53;;;;;;;12.68;2.75;;;3.90;99.90;;;;;;5036441;28;20095;-83
2023/01/19 10:09:32;;;;;;;13.80;3.13;;;3.90;99.90;;;;;;5019985;28;20037;-83
2023/01/19 10:12:28;;;;;;;12.77;2.38;;;4.00;99.90;;;;;;5019917;28;20041;-82
2023/01/19 10:14:53;;;;;;;14.23;2.70;;;4.00;99.90;;;;;;5020559;28;20045;-82
2023/01/19 10:17:46;;;;;;;12.68;2.70;;;4.10;99.90;;;;;;5036579;28;20048;-82
2023/01/19 10:20:44;;;;;;;14.10;2.30;;;4.20;99.90;;;;;;5021200;28;20049;-81
2023/01/19 10:23:42;;;;;;;11.70;2.28;;;4.20;99.90;;;;;;5010002;28;20063;-81
2023/01/19 10:26:20;;;;;;;13.77;2.20;;;4.30;99.90;;;;;;5023017;28;20033;-82
2023/01/19 10:28:48;;;;;;;10.98;2.17;;;4.30;99.90;;;;;;5042554;28;20073;-82
2023/01/19 10:31:17;;;;;;;12.43;2.25;;;4.30;99.90;;;;;;5023987;28;20094;-82
2023/01/19 10:33:43;;;;;;;9.75;1.80;;;4.30;99.90;;;;;;5042703;28;20037;-82
2023/01/19 10:36:19;;;;;;;10.07;1.90;;;4.40;99.90;;;;;;5042891;28;20037;-82
2023/01/19 10:38:46;;;;;;;8.85;1.63;;;4.30;99.90;;;;;;5026813;28;20376;-82
2023/01/19 10:41:24;;;;;;;8.32;1.80;;;4.40;99.90;;;;;;5026174;28;20080;-82
2023/01/19 10:43:59;;;;;;;9.60;2.10;;;4.40;99.90;;;;;;5043994;28;20327;-82
2023/01/19 10:46:34;;;;;;;12.88;2.70;;;4.40;99.90;;;;;;5044117;28;20040;-82
2023/01/19 10:48:59;;;;;;;13.43;2.25;;;4.50;99.90;;;;;;5043406;28;20049;-81
2023/01/19 10:51:25;;;;;;;9.10;2.33;;;4.50;99.90;;;;;;5026211;28;20202;-82
2023/01/19 10:54:00;;;;;;;10.40;2.83;;;4.50;99.90;;;;;;5046621;28;20041;-81
2023/01/19 10:56:37;;;;;;;13.25;2.60;;;4.60;99.90;;;;;;5045447;28;20060;-82
2023/01/19 10:59:04;;;;;;;10.73;3.38;;;4.60;99.90;;;;;;5044988;28;20048;-82
2023/01/19 11:01:34;;;;;;;8.52;2.85;;;4.70;99.90;;;;;;5045681;28;20037;-81
2023/01/19 11:04:17;;;;;;;7.53;1.98;;;4.80;99.90;;;;;;5046205;28;20037;-81
2023/01/19 11:06:42;;;;;;;8.27;1.80;;;4.80;99.90;;;;;;5046896;28;20041;-81
2023/01/19 11:09:12;;;;;;;9.30;1.77;;;4.90;99.90;;;;;;5027043;28;20120;-82
2023/01/19 11:11:47;;;;;;;7.28;1.50;;;5.00;99.90;;;;;;5027388;28;20040;-82
2023/01/19 11:14:17;;;;;;;8.18;1.88;;;5.00;99.90;;;;;;5042440;28;20512;-81
2023/01/19 11:16:46;;;;;;;6.55;1.45;;;5.00;99.90;;;;;;5038749;28;20049;-81
2023/01/19 11:19:25;;;;;;;10.10;1.63;;;5.10;99.90;;;;;;5022953;28;20499;-81
2023/01/19 11:21:51;;;;;;;7.22;1.45;;;5.00;99.90;;;;;;5022308;28;20037;-81
2023/01/19 11:24:17;;;;;;;7.00;1.38;;;5.10;99.90;;;;;;5037709;28;20044;-81
2023/01/19 11:26:53;;;;;;;8.82;1.55;;;5.20;99.90;;;;;;5021734;28;20037;-81
2023/01/19 11:29:24;;;;;;;9.98;1.52;;;5.30;99.90;;;;;;5038162;28;20040;-82
2023/01/19 11:31:51;;;;;;;6.80;1.50;;;5.50;99.90;;;;;;5038404;28;20033;-81
2023/01/19 11:34:36;;;;;;;5.35;1.20;;;5.90;99.90;;;;;;5038188;28;20037;-81
2023/01/19 11:37:17;;;;;;;7.45;1.20;;;6.20;99.90;;;;;;5037646;28;20086;-82
2023/01/19 11:39:52;;;;;;;6.53;1.38;;;6.60;99.90;;;;;;5021966;28;20041;-81
2023/01/19 11:42:18;;;;;;;8.27;1.80;;;6.70;99.90;;;;;;5038028;28;20047;-81
2023/01/19 11:44:54;;;;;;;6.57;1.42;;;6.80;99.90;;;;;;5038136;28;20037;-82
2023/01/19 11:47:48;;;;;;;6.15;1.50;;;6.90;99.90;;;;;;5022081;28;20064;-82
2023/01/19 11:50:35;;;;;;;9.05;1.65;;;7.10;99.90;;;;;;5038202;28;20095;-81
2023/01/19 11:53:10;;;;;;;4.70;1.25;;;7.50;99.90;;;;;;5038616;28;20041;-82
2023/01/19 11:55:45;;;;;;;4.45;1.27;;;7.80;99.90;;;;;;5038583;28;20072;-82
2023/01/19 11:58:16;;;;;;;6.45;1.35;;;8.10;99.90;;;;;;5038240;28;20040;-82
2023/01/19 12:00:48;;;;;;;5.93;1.15;;;8.20;99.90;;;;;;5038984;28;20064;-83
2023/01/19 12:03:18;;;;;;;5.23;2.20;;;8.30;99.90;;;;;;5025356;28;20426;-82
2023/01/19 12:05:47;;;;;;;7.00;1.40;;;8.10;99.90;;;;;;5038543;28;20043;-82
2023/01/19 12:08:25;;;;;;;6.43;1.50;;;8.10;99.90;;;;;;5037944;28;20123;-81
2023/01/19 12:10:54;;;;;;;7.00;2.03;;;8.30;99.90;;;;;;5037187;28;20076;-82
2023/01/19 12:13:23;;;;;;;9.40;1.65;;;8.50;99.90;;;;;;5021456;28;20387;-82
2023/01/19 12:16:14;;;;;;;9.02;1.77;;;8.70;99.90;;;;;;5021718;28;20044;-81
2023/01/19 12:18:44;;;;;;;9.38;1.90;;;8.80;99.90;;;;;;5037399;28;20521;-81
2023/01/19 12:21:09;;;;;;;6.63;1.70;;;8.70;99.90;;;;;;5037885;28;20045;-82
2023/01/19 12:23:53;;;;;;;5.68;1.35;;;8.80;99.90;;;;;;5037801;28;20040;-82
2023/01/19 12:26:20;;;;;;;8.10;1.75;;;8.70;99.90;;;;;;5038687;28;20037;-81
2023/01/19 12:28:48;;;;;;;6.97;1.27;;;8.60;99.90;;;;;;5038869;28;20049;-81
2023/01/19 12:31:16;;;;;;;5.70;1.10;;;8.40;99.90;;;;;;5038374;28;20044;-81
2023/01/19 12:33:41;;;;;;;3.92;1.00;;;8.30;99.90;;;;;;5038439;28;20041;-82
2023/01/19 12:36:25;;;;;;;6.70;1.48;;;8.00;99.90;;;;;;5038171;28;20064;-81
2023/01/19 12:39:20;;;;;;;4.93;1.38;;;7.80;99.90;;;;;;5038494;28;20041;-81
2023/01/19 12:41:47;;;;;;;5.63;1.33;;;7.40;99.90;;;;;;5022267;28;20083;-81
2023/01/19 12:44:15;;;;;;;6.75;1.58;;;6.90;99.90;;;;;;5021169;28;20491;-81
2023/01/19 12:47:03;;;;;;;6.82;1.40;;;6.60;99.90;;;;;;5039972;28;20045;-81
2023/01/19 12:49:37;;;;;;;3.95;1.00;;;6.40;99.90;;;;;;5022049;28;20037;-81
2023/01/19 12:52:27;;;;;;;5.45;1.10;;;6.60;99.90;;;;;;5038764;28;20037;-81
2023/01/19 12:55:11;;;;;;;7.38;1.17;;;6.90;99.90;;;;;;5039178;28;20048;-82
2023/01/19 12:57:49;;;;;;;5.05;1.33;;;7.20;99.90;;;;;;5022441;28;20080;-81
2023/01/19 13:00:20;;;;;;;5.68;1.27;;;7.20;99.90;;;;;;5021554;28;20041;-82
2023/01/19 13:02:54;;;;;;;7.65;1.30;;;7.20;99.90;;;;;;5021953;28;20106;-81
2023/01/19 13:05:43;;;;;;;5.57;1.40;;;7.10;99.90;;;;;;5022330;28;20429;-81
2023/01/19 13:08:08;;;;;;;7.18;1.92;;;6.80;99.90;;;;;;5038257;28;20040;-81